createdAt,value
2023-04-07T00:00:37.263Z,9.90
2023-04-07T00:03:19.640Z,9.40
2023-04-07T00:05:48.189Z,9.20
2023-04-07T00:08:16.084Z,10.40
2023-04-07T00:10:44.053Z,10.50
2023-04-07T00:13:11.889Z,9.30
2023-04-07T00:15:39.909Z,9.40
2023-04-07T00:18:07.910Z,9.30
2023-04-07T00:20:36.031Z,9.20
2023-04-07T00:23:04.057Z,8.10
2023-04-07T00:25:31.996Z,7.60
2023-04-07T00:27:59.917Z,7.80
2023-04-07T00:30:28.098Z,7.20
2023-04-07T00:32:57.014Z,8.10
2023-04-07T00:35:25.035Z,7.70
2023-04-07T00:37:53.343Z,7.50
2023-04-07T00:40:21.424Z,9.50
2023-04-07T00:42:49.388Z,7.80
2023-04-07T00:45:17.543Z,9.10
2023-04-07T00:47:45.659Z,7.80
2023-04-07T00:50:13.708Z,7.60
2023-04-07T00:52:42.517Z,7.80
2023-04-07T00:55:10.453Z,8.00
2023-04-07T00:57:38.405Z,8.40
2023-04-07T01:00:08.361Z,8.20
2023-04-07T01:02:49.420Z,8.60
2023-04-07T01:05:31.060Z,9.00
2023-04-07T01:08:12.448Z,8.60
2023-04-07T01:11:04.833Z,10.60
2023-04-07T01:13:46.362Z,9.60
2023-04-07T01:16:33.239Z,9.60
2023-04-07T01:19:13.803Z,8.90
2023-04-07T01:21:47.394Z,9.00
2023-04-07T01:24:34.258Z,9.20
2023-04-07T01:27:42.684Z,7.60
2023-04-07T01:30:13.514Z,8.80
2023-04-07T01:32:45.419Z,7.90
2023-04-07T01:35:14.717Z,9.50
2023-04-07T01:37:46.729Z,9.20
2023-04-07T01:40:16.829Z,9.40
2023-04-07T01:42:47.299Z,9.40
2023-04-07T01:45:17.523Z,8.90
2023-04-07T01:47:46.760Z,10.80
2023-04-07T01:50:16.041Z,11.90
2023-04-07T01:52:45.006Z,11.80
2023-04-07T01:55:13.081Z,11.60
2023-04-07T01:57:49.438Z,10.30
2023-04-07T02:00:20.240Z,8.50
2023-04-07T02:02:55.935Z,8.60
2023-04-07T02:05:26.168Z,10.70
2023-04-07T02:07:59.920Z,11.50
2023-04-07T02:10:30.617Z,13.20
2023-04-07T02:13:04.309Z,11.40
2023-04-07T02:15:32.496Z,11.80
2023-04-07T02:18:02.636Z,13.40
2023-04-07T02:20:31.944Z,12.40
2023-04-07T02:23:00.697Z,11.80
2023-04-07T02:25:30.971Z,11.60
2023-04-07T02:28:01.533Z,11.30
2023-04-07T02:30:29.532Z,10.60
2023-04-07T02:32:57.843Z,11.20
2023-04-07T02:35:25.750Z,11.30
2023-04-07T02:37:54.005Z,13.60
2023-04-07T02:40:21.983Z,14.00
2023-04-07T02:42:49.973Z,13.60
2023-04-07T02:45:18.026Z,12.80
2023-04-07T02:47:45.889Z,14.80
2023-04-07T02:50:13.823Z,17.50
2023-04-07T02:52:41.834Z,16.50
2023-04-07T02:55:12.986Z,15.00
2023-04-07T02:57:41.315Z,12.10
2023-04-07T03:00:21.197Z,14.00
2023-04-07T03:02:57.915Z,13.80
2023-04-07T03:05:27.415Z,18.00
2023-04-07T03:07:55.419Z,13.90
2023-04-07T03:10:23.668Z,18.80
2023-04-07T03:12:52.117Z,18.30
2023-04-07T03:15:20.052Z,18.10
2023-04-07T03:17:49.162Z,15.20
2023-04-07T03:20:17.590Z,17.30
2023-04-07T03:22:47.598Z,14.10
2023-04-07T03:25:27.709Z,19.10
2023-04-07T03:27:56.114Z,16.40
2023-04-07T03:30:25.780Z,17.60
2023-04-07T03:32:53.883Z,17.90
2023-04-07T03:35:21.804Z,17.20
2023-04-07T03:37:49.760Z,17.50
2023-04-07T03:40:19.090Z,19.00
2023-04-07T03:42:47.371Z,20.00
2023-04-07T03:45:16.635Z,20.00
2023-04-07T03:47:49.442Z,20.10
2023-04-07T03:50:17.791Z,21.50
2023-04-07T03:52:54.151Z,18.90
2023-04-07T03:55:27.030Z,14.30
2023-04-07T03:57:58.916Z,17.00
2023-04-07T04:00:31.900Z,20.40
2023-04-07T04:03:06.779Z,13.80
2023-04-07T04:05:35.853Z,16.60
2023-04-07T04:08:04.613Z,19.00
2023-04-07T04:10:34.507Z,17.70
2023-04-07T04:13:06.830Z,17.50
2023-04-07T04:15:35.548Z,16.90
2023-04-07T04:18:04.983Z,17.60
2023-04-07T04:20:33.532Z,16.20
2023-04-07T04:23:03.297Z,16.80
2023-04-07T04:25:31.656Z,16.90
2023-04-07T04:28:00.037Z,15.00
2023-04-07T04:30:28.188Z,17.30
2023-04-07T04:32:58.951Z,16.60
2023-04-07T04:35:34.347Z,17.90
2023-04-07T04:38:08.692Z,17.80
2023-04-07T04:40:38.020Z,18.30
2023-04-07T04:43:07.483Z,16.70
2023-04-07T04:45:37.119Z,16.50
2023-04-07T04:48:06.578Z,16.90
2023-04-07T04:50:34.724Z,17.60
2023-04-07T04:53:03.147Z,18.30
2023-04-07T04:55:31.439Z,17.20
2023-04-07T04:58:00.580Z,19.00
2023-04-07T05:00:38.937Z,18.90
2023-04-07T05:03:08.274Z,17.50
2023-04-07T05:05:39.064Z,16.80
2023-04-07T05:08:11.291Z,17.30
2023-04-07T05:10:41.043Z,15.50
2023-04-07T05:13:12.654Z,12.90
2023-04-07T05:15:42.475Z,15.90
2023-04-07T05:18:12.592Z,11.60
2023-04-07T05:20:41.599Z,18.40
2023-04-07T05:23:10.038Z,16.90
2023-04-07T05:25:38.205Z,19.50
2023-04-07T05:28:06.962Z,19.40
2023-04-07T05:30:35.461Z,19.50
2023-04-07T05:33:03.527Z,20.40
2023-04-07T05:35:39.445Z,17.40
2023-04-07T05:38:07.642Z,17.00
2023-04-07T05:40:37.554Z,17.90
2023-04-07T05:43:07.639Z,17.00
2023-04-07T05:45:36.901Z,11.30
2023-04-07T05:48:06.633Z,9.40
2023-04-07T05:50:40.647Z,16.80
2023-04-07T05:53:11.984Z,16.90
2023-04-07T05:55:43.045Z,18.90
2023-04-07T05:58:13.636Z,17.30
2023-04-07T06:00:43.142Z,15.30
2023-04-07T06:03:13.687Z,19.80
2023-04-07T06:05:52.743Z,18.60
2023-04-07T06:08:21.981Z,17.10
2023-04-07T06:10:49.934Z,20.50
2023-04-07T06:13:18.022Z,22.20
2023-04-07T06:15:46.622Z,19.30
2023-04-07T06:18:14.617Z,20.20
2023-04-07T06:20:42.700Z,20.50
2023-04-07T06:23:11.739Z,18.50
2023-04-07T06:25:39.869Z,18.50
2023-04-07T06:28:08.204Z,17.00
2023-04-07T06:30:36.379Z,20.20
2023-04-07T06:33:07.275Z,20.70
2023-04-07T06:35:35.374Z,20.80
2023-04-07T06:38:03.436Z,17.10
2023-04-07T06:40:31.618Z,18.20
2023-04-07T06:42:59.749Z,19.70
2023-04-07T06:45:38.695Z,17.90
2023-04-07T06:48:07.367Z,13.90
2023-04-07T06:50:35.602Z,14.30
2023-04-07T06:53:03.798Z,11.40
2023-04-07T06:55:32.016Z,14.60
2023-04-07T06:57:59.908Z,15.40
2023-04-07T07:00:30.376Z,12.00
2023-04-07T07:02:58.573Z,12.90
2023-04-07T07:05:27.181Z,12.20
2023-04-07T07:07:55.471Z,12.40
2023-04-07T07:10:23.852Z,10.70
2023-04-07T07:12:52.178Z,11.50
2023-04-07T07:15:20.516Z,11.60
2023-04-07T07:17:50.487Z,9.90
2023-04-07T07:20:23.683Z,9.10
2023-04-07T07:22:51.750Z,9.30
2023-04-07T07:25:20.064Z,8.20
2023-04-07T07:27:53.552Z,7.40
2023-04-07T07:30:22.844Z,7.20
2023-04-07T07:32:53.799Z,9.60
2023-04-07T07:35:22.897Z,8.70
2023-04-07T07:37:51.814Z,8.70
2023-04-07T07:40:20.496Z,5.50
2023-04-07T07:42:48.555Z,7.60
2023-04-07T07:45:19.685Z,7.10
2023-04-07T07:47:47.747Z,6.20
2023-04-07T07:50:15.856Z,5.80
2023-04-07T07:52:43.893Z,6.00
2023-04-07T07:55:11.963Z,7.20
2023-04-07T07:57:40.065Z,5.70
2023-04-07T08:00:09.127Z,4.90
2023-04-07T08:02:43.060Z,4.70
2023-04-07T08:05:11.548Z,5.70
2023-04-07T08:07:39.696Z,7.00
2023-04-07T08:10:08.282Z,6.90
2023-04-07T08:12:36.474Z,3.30
2023-04-07T08:15:05.134Z,4.50
2023-04-07T08:17:33.164Z,5.80
2023-04-07T08:20:01.289Z,5.70
2023-04-07T08:22:29.584Z,6.70
2023-04-07T08:24:57.826Z,7.40
2023-04-07T08:27:26.089Z,6.30
2023-04-07T08:30:07.073Z,6.70
2023-04-07T08:32:36.413Z,8.20
2023-04-07T08:35:05.105Z,7.50
2023-04-07T08:37:34.514Z,7.70
2023-04-07T08:40:04.105Z,7.30
2023-04-07T08:42:34.232Z,7.30
2023-04-07T08:45:07.626Z,7.30
2023-04-07T08:47:37.425Z,6.60
2023-04-07T08:50:08.272Z,5.30
2023-04-07T08:53:07.457Z,6.90
2023-04-07T08:55:36.584Z,5.50
2023-04-07T08:58:05.065Z,5.90
2023-04-07T09:00:33.261Z,5.70
2023-04-07T09:03:03.727Z,5.70
2023-04-07T09:05:32.996Z,6.40
2023-04-07T09:08:02.738Z,5.80
2023-04-07T09:10:31.471Z,5.70
2023-04-07T09:12:59.990Z,5.40
2023-04-07T09:15:36.724Z,5.30
2023-04-07T09:18:06.754Z,5.80
2023-04-07T09:20:57.842Z,6.10
2023-04-07T09:23:32.776Z,5.50
2023-04-07T09:26:24.882Z,5.80
2023-04-07T09:28:59.726Z,6.60
2023-04-07T09:31:50.175Z,6.80
2023-04-07T09:34:29.879Z,5.20
2023-04-07T09:36:58.089Z,5.90
2023-04-07T09:39:27.252Z,6.30
2023-04-07T09:41:55.801Z,6.10
2023-04-07T09:44:25.363Z,5.90
2023-04-07T09:46:58.134Z,5.90
2023-04-07T09:49:26.906Z,5.50
2023-04-07T09:52:00.283Z,5.40
2023-04-07T09:54:39.692Z,6.10
2023-04-07T09:57:12.522Z,6.30
2023-04-07T09:59:44.914Z,5.60
2023-04-07T10:02:13.264Z,5.40
2023-04-07T10:04:42.453Z,4.90
2023-04-07T10:07:11.204Z,5.30
2023-04-07T10:09:39.354Z,6.10
2023-04-07T10:12:07.447Z,5.90
2023-04-07T10:14:37.118Z,5.70
2023-04-07T10:17:06.616Z,5.80
2023-04-07T10:19:35.262Z,5.30
2023-04-07T10:22:06.933Z,5.50
2023-04-07T10:24:47.264Z,5.90
2023-04-07T10:27:19.793Z,6.10
2023-04-07T10:29:51.704Z,6.10
2023-04-07T10:32:20.127Z,5.80
2023-04-07T10:34:50.931Z,5.10
2023-04-07T10:37:21.625Z,6.30
2023-04-07T10:39:52.106Z,6.60
2023-04-07T10:42:41.630Z,6.20
2023-04-07T10:45:10.840Z,6.80
2023-04-07T10:47:57.784Z,6.30
2023-04-07T10:50:26.053Z,5.60
2023-04-07T10:53:08.487Z,5.00
2023-04-07T10:55:39.287Z,4.50
2023-04-07T10:58:29.066Z,3.90
2023-04-07T11:00:57.551Z,4.40
2023-04-07T11:03:27.151Z,4.00
2023-04-07T11:06:15.025Z,3.70
2023-04-07T11:08:47.538Z,4.80
2023-04-07T11:11:34.812Z,4.80
2023-04-07T11:14:03.234Z,3.60
2023-04-07T11:16:39.665Z,3.60
2023-04-07T11:19:08.090Z,18.00
2023-04-07T11:21:37.261Z,6.90
2023-04-07T11:24:05.994Z,4.00
2023-04-07T11:26:39.612Z,3.90
2023-04-07T11:29:08.223Z,3.30
2023-04-07T11:31:37.134Z,3.20
2023-04-07T11:34:05.710Z,3.00
2023-04-07T11:36:35.940Z,3.50
2023-04-07T11:39:04.561Z,4.00
2023-04-07T11:41:34.290Z,4.30
2023-04-07T11:44:12.951Z,3.60
2023-04-07T11:47:01.026Z,3.10
2023-04-07T11:49:29.441Z,3.30
2023-04-07T11:52:07.013Z,3.20
2023-04-07T11:54:52.270Z,3.20
2023-04-07T11:57:28.512Z,2.50
2023-04-07T12:00:11.042Z,3.30
2023-04-07T12:02:39.540Z,3.60
2023-04-07T12:05:10.928Z,3.30
2023-04-07T12:07:41.952Z,2.90
2023-04-07T12:10:25.801Z,2.80
2023-04-07T12:12:54.143Z,3.20
2023-04-07T12:15:22.924Z,2.90
2023-04-07T12:17:51.214Z,3.00
2023-04-07T12:20:19.443Z,3.10
2023-04-07T12:22:47.484Z,2.80
2023-04-07T12:25:15.694Z,3.20
2023-04-07T12:27:44.122Z,3.30
2023-04-07T12:30:13.637Z,3.70
2023-04-07T12:32:42.026Z,3.00
2023-04-07T12:35:10.187Z,3.50
2023-04-07T12:37:38.910Z,3.50
2023-04-07T12:40:07.914Z,4.00
2023-04-07T12:42:35.933Z,3.90
2023-04-07T12:45:04.430Z,3.60
2023-04-07T12:47:32.618Z,3.50
2023-04-07T12:50:01.654Z,3.80
2023-04-07T12:52:29.904Z,3.70
2023-04-07T12:54:58.794Z,3.20
2023-04-07T12:57:27.742Z,3.40
2023-04-07T12:59:55.899Z,3.60
2023-04-07T13:02:25.118Z,3.70
2023-04-07T13:04:53.564Z,3.70
2023-04-07T13:07:22.251Z,3.80
2023-04-07T13:09:50.528Z,3.70
2023-04-07T13:12:18.808Z,3.50
2023-04-07T13:14:59.324Z,3.60
2023-04-07T13:17:29.216Z,3.90
2023-04-07T13:19:57.529Z,4.10
2023-04-07T13:22:25.794Z,3.50
2023-04-07T13:24:54.078Z,4.10
2023-04-07T13:27:22.232Z,3.70
2023-04-07T13:29:50.391Z,4.00
2023-04-07T13:32:18.800Z,4.10
2023-04-07T13:34:49.273Z,4.00
2023-04-07T13:37:19.467Z,4.60
2023-04-07T13:39:47.730Z,4.10
2023-04-07T13:42:20.640Z,5.20
2023-04-07T13:44:50.842Z,4.60
2023-04-07T13:47:20.821Z,5.10
2023-04-07T13:49:49.585Z,4.70
2023-04-07T13:52:19.088Z,4.70
2023-04-07T13:54:48.093Z,4.60
2023-04-07T13:57:20.991Z,4.70
2023-04-07T13:59:52.519Z,5.20
2023-04-07T14:02:21.670Z,6.30
2023-04-07T14:04:50.420Z,5.90
2023-04-07T14:07:18.668Z,5.70
2023-04-07T14:09:49.414Z,4.70
2023-04-07T14:12:17.431Z,4.60
2023-04-07T14:14:45.922Z,4.30
2023-04-07T14:17:14.150Z,4.70
2023-04-07T14:19:42.620Z,4.30
2023-04-07T14:22:11.630Z,4.40
2023-04-07T14:24:39.772Z,4.60
2023-04-07T14:27:07.816Z,3.40
2023-04-07T14:29:36.030Z,3.50
2023-04-07T14:32:04.090Z,3.70
2023-04-07T14:34:32.320Z,4.60
2023-04-07T14:37:00.329Z,3.90
2023-04-07T14:39:29.485Z,3.60
2023-04-07T14:41:57.549Z,4.20
2023-04-07T14:44:25.798Z,3.80
2023-04-07T14:46:54.090Z,4.00
2023-04-07T14:49:22.532Z,4.40
2023-04-07T14:51:50.777Z,4.10
2023-04-07T14:54:19.153Z,4.90
2023-04-07T14:56:47.541Z,4.80
2023-04-07T14:59:15.941Z,4.70
2023-04-07T15:01:44.221Z,4.60
2023-04-07T15:04:13.707Z,6.10
2023-04-07T15:06:43.069Z,5.80
2023-04-07T15:09:11.133Z,5.80
2023-04-07T15:11:39.454Z,5.70
2023-04-07T15:14:07.517Z,5.10
2023-04-07T15:16:35.872Z,4.20
2023-04-07T15:19:04.120Z,4.00
2023-04-07T15:21:32.466Z,4.80
2023-04-07T15:24:00.703Z,4.70
2023-04-07T15:26:28.776Z,5.00
2023-04-07T15:28:56.913Z,5.60
2023-04-07T15:31:27.181Z,4.50
2023-04-07T15:33:56.021Z,5.00
2023-04-07T15:36:24.049Z,5.60
2023-04-07T15:38:52.014Z,7.10
2023-04-07T15:41:20.054Z,6.20
2023-04-07T15:43:48.362Z,6.40
2023-04-07T15:46:16.686Z,5.70
2023-04-07T15:48:44.727Z,6.70
2023-04-07T15:51:12.831Z,5.80
2023-04-07T15:53:40.982Z,6.20
2023-04-07T15:56:11.927Z,6.00
2023-04-07T15:58:41.288Z,4.70
2023-04-07T16:01:09.445Z,5.10
2023-04-07T16:03:37.841Z,5.00
2023-04-07T16:06:05.996Z,4.90
2023-04-07T16:08:34.088Z,4.80
2023-04-07T16:11:02.394Z,4.90
2023-04-07T16:13:30.372Z,4.80
2023-04-07T16:15:58.500Z,3.80
2023-04-07T16:18:26.473Z,4.30
2023-04-07T16:20:54.527Z,5.40
2023-04-07T16:23:22.510Z,5.50
2023-04-07T16:25:50.702Z,5.80
2023-04-07T16:28:18.877Z,4.50
2023-04-07T16:30:46.976Z,4.40
2023-04-07T16:33:15.616Z,4.00
2023-04-07T16:35:43.996Z,3.80
2023-04-07T16:38:12.871Z,4.00
2023-04-07T16:40:44.096Z,4.50
2023-04-07T16:43:15.945Z,4.10
2023-04-07T16:45:50.288Z,4.60
2023-04-07T16:48:19.348Z,4.60
2023-04-07T16:50:47.431Z,4.30
2023-04-07T16:53:15.294Z,4.30
2023-04-07T16:55:43.253Z,4.40
2023-04-07T16:58:11.875Z,4.90
2023-04-07T17:00:39.772Z,5.50
2023-04-07T17:03:07.966Z,4.70
2023-04-07T17:05:36.417Z,5.20
2023-04-07T17:08:04.673Z,4.90
2023-04-07T17:10:32.563Z,4.40
2023-04-07T17:13:00.518Z,5.00
2023-04-07T17:15:28.559Z,4.60
2023-04-07T17:17:56.464Z,5.00
2023-04-07T17:20:24.475Z,5.60
2023-04-07T17:22:52.761Z,5.50
2023-04-07T17:25:20.692Z,6.00
2023-04-07T17:27:48.533Z,7.80
2023-04-07T17:30:18.286Z,7.60
2023-04-07T17:32:46.494Z,6.80
2023-04-07T17:35:14.390Z,4.70
2023-04-07T17:37:42.511Z,7.20
2023-04-07T17:40:10.990Z,6.90
2023-04-07T17:42:39.098Z,7.30
2023-04-07T17:45:08.392Z,7.50
2023-04-07T17:47:37.491Z,7.60
2023-04-07T17:50:06.678Z,8.60
2023-04-07T17:52:34.557Z,8.20
2023-04-07T17:55:02.591Z,7.90
2023-04-07T17:57:30.760Z,8.40
2023-04-07T17:59:58.708Z,10.60
2023-04-07T18:02:27.048Z,10.70
2023-04-07T18:05:00.957Z,9.10
2023-04-07T18:07:29.509Z,10.00
2023-04-07T18:09:58.110Z,9.20
2023-04-07T18:12:26.236Z,9.70
2023-04-07T18:14:54.630Z,9.70
2023-04-07T18:17:22.590Z,9.90
2023-04-07T18:19:51.664Z,11.10
2023-04-07T18:22:20.024Z,9.10
2023-04-07T18:24:48.838Z,11.40
2023-04-07T18:27:16.857Z,11.30
2023-04-07T18:29:45.107Z,11.70
2023-04-07T18:32:13.382Z,11.80
2023-04-07T18:34:41.848Z,10.20
2023-04-07T18:37:10.038Z,12.50
2023-04-07T18:39:38.270Z,13.30
2023-04-07T18:42:06.727Z,11.70
2023-04-07T18:44:35.198Z,14.80
2023-04-07T18:47:03.147Z,12.10
2023-04-07T18:49:31.492Z,15.20
2023-04-07T18:51:59.985Z,14.70
2023-04-07T18:54:28.701Z,13.50
2023-04-07T18:56:58.033Z,15.00
2023-04-07T18:59:26.825Z,14.50
2023-04-07T19:01:56.377Z,14.20
2023-04-07T19:04:25.207Z,14.80
2023-04-07T19:06:54.353Z,12.80
2023-04-07T19:09:22.652Z,14.80
2023-04-07T19:11:51.594Z,13.90
2023-04-07T19:14:19.678Z,13.50
2023-04-07T19:16:47.864Z,14.10
2023-04-07T19:19:17.468Z,12.80
2023-04-07T19:21:46.497Z,13.80
2023-04-07T19:24:14.780Z,14.70
2023-04-07T19:26:43.179Z,12.90
2023-04-07T19:29:12.633Z,11.80
2023-04-07T19:31:40.981Z,12.90
2023-04-07T19:34:09.174Z,15.10
2023-04-07T19:36:37.100Z,13.00
2023-04-07T19:39:05.543Z,13.40
2023-04-07T19:41:33.575Z,12.10
2023-04-07T19:44:01.814Z,10.50
2023-04-07T19:46:29.930Z,11.00
2023-04-07T19:48:57.807Z,13.40
2023-04-07T19:51:26.038Z,13.10
2023-04-07T19:53:54.090Z,13.30
2023-04-07T19:56:21.972Z,12.40
2023-04-07T19:58:50.091Z,13.60
2023-04-07T20:01:18.712Z,10.60
2023-04-07T20:03:46.948Z,10.30
2023-04-07T20:06:15.345Z,13.50
2023-04-07T20:08:43.807Z,16.50
2023-04-07T20:11:13.385Z,14.70
2023-04-07T20:13:42.684Z,23.30
2023-04-07T20:16:10.788Z,26.20
2023-04-07T20:18:38.704Z,27.40
2023-04-07T20:21:07.053Z,28.30
2023-04-07T20:23:35.016Z,28.50
2023-04-07T20:26:03.330Z,26.70
2023-04-07T20:28:31.395Z,24.50
2023-04-07T20:30:59.420Z,21.50
2023-04-07T20:33:27.371Z,19.10
2023-04-07T20:35:55.602Z,18.80
2023-04-07T20:38:23.504Z,18.60
2023-04-07T20:40:52.114Z,13.00
2023-04-07T20:43:22.115Z,16.10
2023-04-07T20:45:50.283Z,13.90
2023-04-07T20:48:23.893Z,13.30
2023-04-07T20:50:52.248Z,15.40
2023-04-07T20:53:20.592Z,13.80
2023-04-07T20:55:48.579Z,13.10
2023-04-07T20:58:17.843Z,15.80
2023-04-07T21:00:46.749Z,15.70
2023-04-07T21:03:14.958Z,13.90
2023-04-07T21:05:45.114Z,13.60
2023-04-07T21:08:14.624Z,13.50
2023-04-07T21:10:42.885Z,12.80
2023-04-07T21:13:10.840Z,12.10
2023-04-07T21:15:38.899Z,12.60
2023-04-07T21:18:06.924Z,11.00
2023-04-07T21:20:37.282Z,10.80
2023-04-07T21:23:07.947Z,10.70
2023-04-07T21:25:39.272Z,11.60
2023-04-07T21:28:07.420Z,11.70
2023-04-07T21:30:35.648Z,11.00
2023-04-07T21:33:03.618Z,11.60
2023-04-07T21:35:31.560Z,12.30
2023-04-07T21:37:59.420Z,12.20
2023-04-07T21:40:27.309Z,12.80
2023-04-07T21:42:55.113Z,13.00
2023-04-07T21:45:23.350Z,14.50
2023-04-07T21:47:51.239Z,13.40
2023-04-07T21:50:19.171Z,12.10
2023-04-07T21:52:50.767Z,15.00
2023-04-07T21:55:19.197Z,14.60
2023-04-07T21:57:47.370Z,15.90
2023-04-07T22:00:16.553Z,15.50
2023-04-07T22:02:46.677Z,12.70
2023-04-07T22:05:15.203Z,12.30
2023-04-07T22:07:43.105Z,14.30
2023-04-07T22:10:11.705Z,12.00
2023-04-07T22:12:39.719Z,13.30
2023-04-07T22:15:09.119Z,13.50
2023-04-07T22:17:37.043Z,11.40
2023-04-07T22:20:06.376Z,12.50
2023-04-07T22:22:34.299Z,10.50
2023-04-07T22:25:02.257Z,11.40
2023-04-07T22:27:30.180Z,11.30
2023-04-07T22:29:58.160Z,12.60
2023-04-07T22:32:26.415Z,11.60
2023-04-07T22:34:54.757Z,12.10
2023-04-07T22:37:22.650Z,12.70
2023-04-07T22:39:51.107Z,12.20
2023-04-07T22:42:18.980Z,11.90
2023-04-07T22:44:46.933Z,12.80
2023-04-07T22:47:14.861Z,12.70
2023-04-07T22:49:42.708Z,11.60
2023-04-07T22:52:10.645Z,12.00
2023-04-07T22:54:39.120Z,11.90
2023-04-07T22:57:07.196Z,12.00
2023-04-07T22:59:35.251Z,12.20
2023-04-07T23:02:03.231Z,11.80
2023-04-07T23:04:31.258Z,11.70
2023-04-07T23:06:59.290Z,11.30
2023-04-07T23:09:27.794Z,10.40
2023-04-07T23:11:57.142Z,10.70
2023-04-07T23:14:25.105Z,10.70
2023-04-07T23:16:54.997Z,10.00
2023-04-07T23:19:23.355Z,10.70
2023-04-07T23:21:52.278Z,10.30
2023-04-07T23:24:20.211Z,10.60
2023-04-07T23:26:48.160Z,11.00
2023-04-07T23:29:16.355Z,11.40
2023-04-07T23:31:44.407Z,10.90
2023-04-07T23:34:12.251Z,11.70
2023-04-07T23:36:40.836Z,11.10
2023-04-07T23:39:08.779Z,10.30
2023-04-07T23:41:37.135Z,11.30
2023-04-07T23:44:05.767Z,10.70
2023-04-07T23:46:34.101Z,10.70
2023-04-07T23:49:02.140Z,10.80
2023-04-07T23:51:30.805Z,10.40
2023-04-07T23:53:58.735Z,11.30
2023-04-07T23:56:27.759Z,9.90
2023-04-07T23:58:56.034Z,10.50
